sensor_id;sensor_type;location;lat;lon;timestamp;pressure;altitude;pressure_sealevel;temperature;humidity
82872;BME280;72646;43.596;1.428;2023-10-31T00:01:01;99062.16;;;20.57;50.88
82872;BME280;72646;43.596;1.428;2023-10-31T00:03:26;99054.97;;;20.51;50.95
82872;BME280;72646;43.596;1.428;2023-10-31T00:05:51;99068.28;;;20.59;51.15
82872;BME280;72646;43.596;1.428;2023-10-31T00:08:17;99045.25;;;20.54;51.11
82872;BME280;72646;43.596;1.428;2023-10-31T00:10:42;99043.88;;;20.56;51.26
82872;BME280;72646;43.596;1.428;2023-10-31T00:13:10;99020.31;;;20.49;50.97
82872;BME280;72646;43.596;1.428;2023-10-31T00:15:35;99029.44;;;20.54;51.20
82872;BME280;72646;43.596;1.428;2023-10-31T00:18:00;99035.84;;;20.55;51.04
82872;BME280;72646;43.596;1.428;2023-10-31T00:20:26;99028.91;;;20.52;51.34
82872;BME280;72646;43.596;1.428;2023-10-31T00:22:51;99027.22;;;20.51;51.19
82872;BME280;72646;43.596;1.428;2023-10-31T00:25:17;99031.69;;;20.52;51.25
82872;BME280;72646;43.596;1.428;2023-10-31T00:27:42;99013.97;;;20.43;51.24
82872;BME280;72646;43.596;1.428;2023-10-31T00:30:08;99024.47;;;20.51;51.16
82872;BME280;72646;43.596;1.428;2023-10-31T00:32:33;99029.47;;;20.49;51.18
82872;BME280;72646;43.596;1.428;2023-10-31T00:34:58;99023.41;;;20.42;51.35
82872;BME280;72646;43.596;1.428;2023-10-31T00:37:24;99031.97;;;20.46;51.37
82872;BME280;72646;43.596;1.428;2023-10-31T00:39:49;99028.06;;;20.47;51.20
82872;BME280;72646;43.596;1.428;2023-10-31T00:42:15;99029.47;;;20.44;51.38
82872;BME280;72646;43.596;1.428;2023-10-31T00:44:40;99016.78;;;20.33;51.17
82872;BME280;72646;43.596;1.428;2023-10-31T00:47:06;99026.75;;;20.39;51.03
82872;BME280;72646;43.596;1.428;2023-10-31T00:49:31;99035.59;;;20.41;51.43
82872;BME280;72646;43.596;1.428;2023-10-31T00:51:56;99043.91;;;20.46;51.21
82872;BME280;72646;43.596;1.428;2023-10-31T00:54:22;99042.81;;;20.42;51.36
82872;BME280;72646;43.596;1.428;2023-10-31T00:56:47;99036.19;;;20.33;51.56
82872;BME280;72646;43.596;1.428;2023-10-31T00:59:13;99058.31;;;20.38;51.46
82872;BME280;72646;43.596;1.428;2023-10-31T01:01:38;99071.91;;;20.40;51.46
82872;BME280;72646;43.596;1.428;2023-10-31T01:04:04;99087.44;;;20.41;51.59
82872;BME280;72646;43.596;1.428;2023-10-31T01:06:29;99100.47;;;20.40;51.39
82872;BME280;72646;43.596;1.428;2023-10-31T01:08:55;99086.06;;;20.33;51.26
82872;BME280;72646;43.596;1.428;2023-10-31T01:11:20;99105.47;;;20.38;51.08
82872;BME280;72646;43.596;1.428;2023-10-31T01:13:45;99102.69;;;20.38;51.59
82872;BME280;72646;43.596;1.428;2023-10-31T01:16:11;99106.03;;;20.40;51.62
82872;BME280;72646;43.596;1.428;2023-10-31T01:18:37;99112.13;;;20.37;51.76
82872;BME280;72646;43.596;1.428;2023-10-31T01:21:02;99110.47;;;20.36;51.54
82872;BME280;72646;43.596;1.428;2023-10-31T01:23:28;99098.56;;;20.31;51.35
82872;BME280;72646;43.596;1.428;2023-10-31T01:25:53;99094.09;;;20.30;51.38
82872;BME280;72646;43.596;1.428;2023-10-31T01:28:18;99100.75;;;20.24;51.59
82872;BME280;72646;43.596;1.428;2023-10-31T01:30:44;99098.00;;;20.29;51.55
82872;BME280;72646;43.596;1.428;2023-10-31T01:33:09;99112.13;;;20.37;51.54
82872;BME280;72646;43.596;1.428;2023-10-31T01:35:35;99104.09;;;20.31;51.55
82872;BME280;72646;43.596;1.428;2023-10-31T01:38:00;99096.06;;;20.29;51.67
82872;BME280;72646;43.596;1.428;2023-10-31T01:40:26;99111.03;;;20.33;51.53
82872;BME280;72646;43.596;1.428;2023-10-31T01:42:51;99104.91;;;20.31;51.67
82872;BME280;72646;43.596;1.428;2023-10-31T01:45:16;99111.84;;;20.29;51.30
82872;BME280;72646;43.596;1.428;2023-10-31T01:47:44;99105.47;;;20.28;51.44
82872;BME280;72646;43.596;1.428;2023-10-31T01:50:12;99101.34;;;20.31;51.36
82872;BME280;72646;43.596;1.428;2023-10-31T01:52:38;99107.41;;;20.33;51.24
82872;BME280;72646;43.596;1.428;2023-10-31T01:55:04;99104.63;;;20.33;50.97
82872;BME280;72646;43.596;1.428;2023-10-31T01:57:30;99096.34;;;20.23;51.40
82872;BME280;72646;43.596;1.428;2023-10-31T01:59:55;99107.69;;;20.31;51.29
82872;BME280;72646;43.596;1.428;2023-10-31T02:02:23;99094.69;;;20.22;51.38
82872;BME280;72646;43.596;1.428;2023-10-31T02:04:50;99117.97;;;20.26;51.32
82872;BME280;72646;43.596;1.428;2023-10-31T02:07:15;99114.34;;;20.15;51.35
82872;BME280;72646;43.596;1.428;2023-10-31T02:09:41;99112.41;;;20.26;51.18
82872;BME280;72646;43.596;1.428;2023-10-31T02:12:06;99106.06;;;20.20;51.27
82872;BME280;72646;43.596;1.428;2023-10-31T02:14:32;99117.97;;;20.31;51.28
82872;BME280;72646;43.596;1.428;2023-10-31T02:16:57;99108.28;;;20.23;51.14
82872;BME280;72646;43.596;1.428;2023-10-31T02:19:22;99110.75;;;20.25;51.42
82872;BME280;72646;43.596;1.428;2023-10-31T02:21:48;99116.28;;;20.30;51.30
82872;BME280;72646;43.596;1.428;2023-10-31T02:24:13;99123.22;;;20.27;51.28
82872;BME280;72646;43.596;1.428;2023-10-31T02:26:39;99119.34;;;20.28;51.29
82872;BME280;72646;43.596;1.428;2023-10-31T02:29:04;99114.34;;;20.25;50.98
82872;BME280;72646;43.596;1.428;2023-10-31T02:31:30;99117.97;;;20.26;51.34
82872;BME280;72646;43.596;1.428;2023-10-31T02:33:56;99113.78;;;20.28;51.26
82872;BME280;72646;43.596;1.428;2023-10-31T02:36:21;99121.81;;;20.30;51.11
82872;BME280;72646;43.596;1.428;2023-10-31T02:38:47;99124.88;;;20.28;51.28
82872;BME280;72646;43.596;1.428;2023-10-31T02:41:13;99115.47;;;20.24;51.33
82872;BME280;72646;43.596;1.428;2023-10-31T02:43:39;99119.34;;;20.28;51.24
82872;BME280;72646;43.596;1.428;2023-10-31T02:46:04;99124.88;;;20.28;51.33
82872;BME280;72646;43.596;1.428;2023-10-31T02:48:30;99114.66;;;20.19;51.39
82872;BME280;72646;43.596;1.428;2023-10-31T02:51:03;99123.78;;;20.24;51.37
82872;BME280;72646;43.596;1.428;2023-10-31T02:53:29;99127.66;;;20.23;51.15
82872;BME280;72646;43.596;1.428;2023-10-31T02:55:54;99130.41;;;20.28;50.97
82872;BME280;72646;43.596;1.428;2023-10-31T02:58:19;99118.50;;;20.23;51.08
82872;BME280;72646;43.596;1.428;2023-10-31T03:00:45;99126.28;;;20.26;51.15
82872;BME280;72646;43.596;1.428;2023-10-31T03:03:10;99124.59;;;20.30;51.16
82872;BME280;72646;43.596;1.428;2023-10-31T03:05:36;99122.09;;;20.28;51.12
82872;BME280;72646;43.596;1.428;2023-10-31T03:08:01;99121.81;;;20.30;50.96
82872;BME280;72646;43.596;1.428;2023-10-31T03:10:26;99121.81;;;20.30;50.81
82872;BME280;72646;43.596;1.428;2023-10-31T03:12:52;99117.69;;;20.32;50.63
82872;BME280;72646;43.596;1.428;2023-10-31T03:15:17;99114.63;;;20.29;50.63
82872;BME280;72646;43.596;1.428;2023-10-31T03:17:43;99109.66;;;20.26;50.68
82872;BME280;72646;43.596;1.428;2023-10-31T03:20:09;99126.00;;;20.32;50.37
82872;BME280;72646;43.596;1.428;2023-10-31T03:22:34;99121.56;;;20.26;50.52
82872;BME280;72646;43.596;1.428;2023-10-31T03:25:00;99112.69;;;20.24;50.40
82872;BME280;72646;43.596;1.428;2023-10-31T03:27:26;99115.47;;;20.24;50.59
82872;BME280;72646;43.596;1.428;2023-10-31T03:29:51;99128.78;;;20.32;50.48
82872;BME280;72646;43.596;1.428;2023-10-31T03:32:17;99123.50;;;20.31;51.13
82872;BME280;72646;43.596;1.428;2023-10-31T03:34:42;99114.34;;;20.25;50.68
82872;BME280;72646;43.596;1.428;2023-10-31T03:37:08;99131.81;;;20.31;50.62
82872;BME280;72646;43.596;1.428;2023-10-31T03:39:33;99126.56;;;20.29;50.56
82872;BME280;72646;43.596;1.428;2023-10-31T03:41:59;99127.66;;;20.23;50.55
82872;BME280;72646;43.596;1.428;2023-10-31T03:44:25;99132.09;;;20.24;50.64
82872;BME280;72646;43.596;1.428;2023-10-31T03:46:50;99134.88;;;20.24;50.26
82872;BME280;72646;43.596;1.428;2023-10-31T03:49:16;99147.91;;;20.29;50.51
82872;BME280;72646;43.596;1.428;2023-10-31T03:51:41;99144.31;;;20.23;50.57
82872;BME280;72646;43.596;1.428;2023-10-31T03:54:07;99149.00;;;20.28;50.25
82872;BME280;72646;43.596;1.428;2023-10-31T03:56:40;99134.88;;;20.24;50.28
82872;BME280;72646;43.596;1.428;2023-10-31T03:59:06;99135.16;;;20.23;50.35
82872;BME280;72646;43.596;1.428;2023-10-31T04:01:31;99145.94;;;20.24;50.60
82872;BME280;72646;43.596;1.428;2023-10-31T04:03:57;99151.50;;;20.24;50.26
82872;BME280;72646;43.596;1.428;2023-10-31T04:06:22;99147.06;;;20.23;50.18
82872;BME280;72646;43.596;1.428;2023-10-31T04:08:48;99158.69;;;20.30;50.27
82872;BME280;72646;43.596;1.428;2023-10-31T04:11:13;99145.41;;;20.22;50.18
82872;BME280;72646;43.596;1.428;2023-10-31T04:13:38;99158.13;;;20.28;50.23
82872;BME280;72646;43.596;1.428;2023-10-31T04:16:04;99147.34;;;20.22;50.26
82872;BME280;72646;43.596;1.428;2023-10-31T04:18:29;99143.19;;;20.19;50.17
82872;BME280;72646;43.596;1.428;2023-10-31T04:20:55;99166.47;;;20.28;50.24
82872;BME280;72646;43.596;1.428;2023-10-31T04:23:20;99160.38;;;20.26;50.17
82872;BME280;72646;43.596;1.428;2023-10-31T04:25:46;99152.03;;;20.21;50.26
82872;BME280;72646;43.596;1.428;2023-10-31T04:28:11;99165.34;;;20.24;49.91
82872;BME280;72646;43.596;1.428;2023-10-31T04:30:38;99173.13;;;20.27;49.99
82872;BME280;72646;43.596;1.428;2023-10-31T04:33:03;99161.75;;;20.24;50.05
82872;BME280;72646;43.596;1.428;2023-10-31T04:35:29;99168.13;;;20.24;50.08
82872;BME280;72646;43.596;1.428;2023-10-31T04:37:54;99179.22;;;20.24;49.98
82872;BME280;72646;43.596;1.428;2023-10-31T04:40:20;99182.56;;;20.26;50.05
82872;BME280;72646;43.596;1.428;2023-10-31T04:42:46;99185.03;;;20.23;49.99
82872;BME280;72646;43.596;1.428;2023-10-31T04:45:11;99199.47;;;20.25;50.08
82872;BME280;72646;43.596;1.428;2023-10-31T04:47:37;99199.72;;;20.23;50.23
82872;BME280;72646;43.596;1.428;2023-10-31T04:50:02;99200.00;;;20.22;50.25
82872;BME280;72646;43.596;1.428;2023-10-31T04:52:28;99196.13;;;20.23;49.95
82872;BME280;72646;43.596;1.428;2023-10-31T04:54:53;99189.47;;;20.19;49.99
82872;BME280;72646;43.596;1.428;2023-10-31T04:57:19;99185.84;;;20.18;50.21
82872;BME280;72646;43.596;1.428;2023-10-31T04:59:44;99204.16;;;20.19;50.17
82872;BME280;72646;43.596;1.428;2023-10-31T05:02:09;99195.84;;;20.14;50.53
82872;BME280;72646;43.596;1.428;2023-10-31T05:04:38;99201.09;;;20.16;49.95
82872;BME280;72646;43.596;1.428;2023-10-31T05:07:04;99205.28;;;20.23;49.81
82872;BME280;72646;43.596;1.428;2023-10-31T05:09:30;99203.59;;;20.17;50.05
82872;BME280;72646;43.596;1.428;2023-10-31T05:11:55;99218.56;;;20.21;50.13
82872;BME280;72646;43.596;1.428;2023-10-31T05:14:21;99215.25;;;20.14;49.97
82872;BME280;72646;43.596;1.428;2023-10-31T05:16:46;99219.13;;;20.18;50.03
82872;BME280;72646;43.596;1.428;2023-10-31T05:19:12;99226.59;;;20.23;49.98
82872;BME280;72646;43.596;1.428;2023-10-31T05:21:37;99221.34;;;20.16;50.00
82872;BME280;72646;43.596;1.428;2023-10-31T05:24:03;99206.94;;;20.14;49.87
82872;BME280;72646;43.596;1.428;2023-10-31T05:26:29;99221.34;;;20.21;49.76
82872;BME280;72646;43.596;1.428;2023-10-31T05:28:55;99220.81;;;20.19;49.81
82872;BME280;72646;43.596;1.428;2023-10-31T05:31:22;99233.53;;;20.20;49.83
82872;BME280;72646;43.596;1.428;2023-10-31T05:33:47;99226.91;;;20.16;50.01
82872;BME280;72646;43.596;1.428;2023-10-31T05:36:20;99222.16;;;20.12;50.07
82872;BME280;72646;43.596;1.428;2023-10-31T05:38:45;99234.94;;;20.18;50.05
82872;BME280;72646;43.596;1.428;2023-10-31T05:41:11;99227.97;;;20.15;50.08
82872;BME280;72646;43.596;1.428;2023-10-31T05:43:36;99232.16;;;20.18;49.72
82872;BME280;72646;43.596;1.428;2023-10-31T05:46:02;99240.47;;;20.13;49.81
82872;BME280;72646;43.596;1.428;2023-10-31T05:48:27;99234.03;;;20.07;49.85
82872;BME280;72646;43.596;1.428;2023-10-31T05:50:52;99236.28;;;20.10;50.07
82872;BME280;72646;43.596;1.428;2023-10-31T05:53:18;99242.41;;;20.12;49.70
82872;BME280;72646;43.596;1.428;2023-10-31T05:55:43;99249.88;;;20.12;49.79
82872;BME280;72646;43.596;1.428;2023-10-31T05:58:08;99253.75;;;20.16;49.63
82872;BME280;72646;43.596;1.428;2023-10-31T06:00:34;99257.34;;;20.11;49.92
82872;BME280;72646;43.596;1.428;2023-10-31T06:03:00;99252.66;;;20.12;49.79
82872;BME280;72646;43.596;1.428;2023-10-31T06:05:25;99263.19;;;20.15;49.69
82872;BME280;72646;43.596;1.428;2023-10-31T06:07:51;99265.13;;;20.14;49.53
82872;BME280;72646;43.596;1.428;2023-10-31T06:10:17;99258.97;;;20.07;49.64
82872;BME280;72646;43.596;1.428;2023-10-31T06:12:42;99272.00;;;20.07;49.75
82872;BME280;72646;43.596;1.428;2023-10-31T06:15:08;99261.50;;;20.04;49.49
82872;BME280;72646;43.596;1.428;2023-10-31T06:17:33;99271.19;;;20.06;49.52
82872;BME280;72646;43.596;1.428;2023-10-31T06:19:59;99282.88;;;20.13;49.63
82872;BME280;72646;43.596;1.428;2023-10-31T06:22:24;99288.69;;;20.12;49.66
82872;BME280;72646;43.596;1.428;2023-10-31T06:24:50;99286.69;;;20.07;49.66
82872;BME280;72646;43.596;1.428;2023-10-31T06:27:15;99294.22;;;20.12;49.59
82872;BME280;72646;43.596;1.428;2023-10-31T06:29:40;99283.66;;;20.04;49.46
82872;BME280;72646;43.596;1.428;2023-10-31T06:32:06;99294.16;;;20.07;49.57
82872;BME280;72646;43.596;1.428;2023-10-31T06:34:31;99291.41;;;20.02;49.37
82872;BME280;72646;43.596;1.428;2023-10-31T06:36:57;99309.16;;;20.11;49.52
82872;BME280;72646;43.596;1.428;2023-10-31T06:39:22;99318.03;;;20.08;49.48
82872;BME280;72646;43.596;1.428;2023-10-31T06:41:48;99311.91;;;20.06;49.63
82872;BME280;72646;43.596;1.428;2023-10-31T06:44:13;99321.34;;;20.10;49.35
82872;BME280;72646;43.596;1.428;2023-10-31T06:46:39;99329.13;;;20.13;49.23
82872;BME280;72646;43.596;1.428;2023-10-31T06:49:04;99324.72;;;20.12;49.33
82872;BME280;72646;43.596;1.428;2023-10-31T06:51:29;99326.59;;;20.06;49.00
82872;BME280;72646;43.596;1.428;2023-10-31T06:53:55;99338.81;;;20.10;49.13
82872;BME280;72646;43.596;1.428;2023-10-31T06:56:20;99346.28;;;20.10;49.27
82872;BME280;72646;43.596;1.428;2023-10-31T06:58:46;99328.53;;;20.01;48.89
82872;BME280;72646;43.596;1.428;2023-10-31T07:01:11;99352.16;;;20.13;48.98
82872;BME280;72646;43.596;1.428;2023-10-31T07:03:38;99346.28;;;20.10;49.18
82872;BME280;72646;43.596;1.428;2023-10-31T07:06:04;99350.44;;;20.07;49.05
82872;BME280;72646;43.596;1.428;2023-10-31T07:08:29;99361.28;;;20.14;48.92
82872;BME280;72646;43.596;1.428;2023-10-31T07:10:55;99358.16;;;20.05;48.90
82872;BME280;72646;43.596;1.428;2023-10-31T07:13:20;99383.19;;;20.15;48.84
82872;BME280;72646;43.596;1.428;2023-10-31T07:15:46;99370.41;;;20.09;48.88
82872;BME280;72646;43.596;1.428;2023-10-31T07:18:12;99374.00;;;20.10;48.94
82872;BME280;72646;43.596;1.428;2023-10-31T07:20:38;99387.03;;;20.09;48.69
82872;BME280;72646;43.596;1.428;2023-10-31T07:23:03;99374.00;;;20.05;48.83
82872;BME280;72646;43.596;1.428;2023-10-31T07:25:28;99386.22;;;20.14;48.46
82872;BME280;72646;43.596;1.428;2023-10-31T07:27:54;99371.56;;;20.13;49.15
82872;BME280;72646;43.596;1.428;2023-10-31T07:30:19;99386.25;;;20.19;49.20
82872;BME280;72646;43.596;1.428;2023-10-31T07:32:45;99380.38;;;20.10;49.11
82872;BME280;72646;43.596;1.428;2023-10-31T07:35:10;99390.97;;;20.18;49.02
82872;BME280;72646;43.596;1.428;2023-10-31T07:37:35;99395.69;;;20.18;48.88
82872;BME280;72646;43.596;1.428;2023-10-31T07:40:01;99401.53;;;20.26;48.70
82872;BME280;72646;43.596;1.428;2023-10-31T07:42:29;99407.63;;;20.28;48.45
82872;BME280;72646;43.596;1.428;2023-10-31T07:44:54;99410.97;;;20.30;48.38
82872;BME280;72646;43.596;1.428;2023-10-31T07:47:21;99418.47;;;20.35;48.35
82872;BME280;72646;43.596;1.428;2023-10-31T07:49:46;99411.81;;;20.36;48.15
82872;BME280;72646;43.596;1.428;2023-10-31T07:52:13;99412.94;;;20.35;48.16
82872;BME280;72646;43.596;1.428;2023-10-31T07:54:39;99412.13;;;20.39;47.87
82872;BME280;72646;43.596;1.428;2023-10-31T07:57:06;99410.97;;;20.35;48.05
82872;BME280;72646;43.596;1.428;2023-10-31T07:59:33;99427.38;;;20.42;47.89
82872;BME280;72646;43.596;1.428;2023-10-31T08:01:59;99426.28;;;20.48;47.70
82872;BME280;72646;43.596;1.428;2023-10-31T08:04:24;99438.19;;;20.48;47.91
82872;BME280;72646;43.596;1.428;2023-10-31T08:06:50;99439.59;;;20.51;47.78
82872;BME280;72646;43.596;1.428;2023-10-31T08:09:15;99446.81;;;20.52;47.64
82872;BME280;72646;43.596;1.428;2023-10-31T08:11:41;99434.59;;;20.48;47.69
82872;BME280;72646;43.596;1.428;2023-10-31T08:14:07;99434.31;;;20.49;47.64
82872;BME280;72646;43.596;1.428;2023-10-31T08:16:32;99443.75;;;20.53;47.73
82872;BME280;72646;43.596;1.428;2023-10-31T08:18:57;99438.19;;;20.48;47.49
82872;BME280;72646;43.596;1.428;2023-10-31T08:21:23;99442.06;;;20.47;47.57
82872;BME280;72646;43.596;1.428;2023-10-31T08:23:48;99452.63;;;20.55;47.60
82872;BME280;72646;43.596;1.428;2023-10-31T08:26:14;99460.66;;;20.52;47.39
82872;BME280;72646;43.596;1.428;2023-10-31T08:28:40;99472.03;;;20.55;47.73
82872;BME280;72646;43.596;1.428;2023-10-31T08:31:06;99471.50;;;20.53;47.61
82872;BME280;72646;43.596;1.428;2023-10-31T08:33:31;99463.69;;;20.45;47.53
82872;BME280;72646;43.596;1.428;2023-10-31T08:35:56;99474.81;;;20.55;47.57
82872;BME280;72646;43.596;1.428;2023-10-31T08:38:22;99467.28;;;20.46;47.41
82872;BME280;72646;43.596;1.428;2023-10-31T08:40:48;99469.25;;;20.50;47.68
82872;BME280;72646;43.596;1.428;2023-10-31T08:43:14;99476.50;;;20.56;47.55
82872;BME280;72646;43.596;1.428;2023-10-31T08:45:39;99478.72;;;20.59;47.10
82872;BME280;72646;43.596;1.428;2023-10-31T08:48:05;99468.72;;;20.58;47.07
82872;BME280;72646;43.596;1.428;2023-10-31T08:50:30;99475.63;;;20.46;47.32
82872;BME280;72646;43.596;1.428;2023-10-31T08:52:56;99467.84;;;20.38;47.69
82872;BME280;72646;43.596;1.428;2023-10-31T08:55:22;99478.66;;;20.44;47.67
82872;BME280;72646;43.596;1.428;2023-10-31T08:57:47;99487.56;;;20.51;47.46
82872;BME280;72646;43.596;1.428;2023-10-31T09:00:13;99478.13;;;20.47;47.43
82872;BME280;72646;43.596;1.428;2023-10-31T09:02:39;99481.16;;;20.46;47.03
82872;BME280;72646;43.596;1.428;2023-10-31T09:05:05;99485.91;;;20.50;47.27
82872;BME280;72646;43.596;1.428;2023-10-31T09:07:30;99486.16;;;20.49;46.95
82872;BME280;72646;43.596;1.428;2023-10-31T09:09:56;99485.91;;;20.50;47.26
82872;BME280;72646;43.596;1.428;2023-10-31T09:12:21;99483.41;;;20.54;47.15
82872;BME280;72646;43.596;1.428;2023-10-31T09:14:47;99482.84;;;20.52;47.13
82872;BME280;72646;43.596;1.428;2023-10-31T09:17:12;99482.84;;;20.52;47.25
82872;BME280;72646;43.596;1.428;2023-10-31T09:19:38;99487.88;;;20.60;47.38
82872;BME280;72646;43.596;1.428;2023-10-31T09:22:03;99484.25;;;20.54;47.16
82872;BME280;72646;43.596;1.428;2023-10-31T09:24:29;99492.03;;;20.62;47.21
82872;BME280;72646;43.596;1.428;2023-10-31T09:26:54;99484.81;;;20.56;47.13
82872;BME280;72646;43.596;1.428;2023-10-31T09:29:23;99502.03;;;20.63;47.07
82872;BME280;72646;43.596;1.428;2023-10-31T09:31:48;99497.88;;;20.61;47.27
82872;BME280;72646;43.596;1.428;2023-10-31T09:34:14;99507.31;;;20.65;47.09
82872;BME280;72646;43.596;1.428;2023-10-31T09:36:40;99499.81;;;20.60;47.00
82872;BME280;72646;43.596;1.428;2023-10-31T09:39:05;99497.88;;;20.61;47.28
82872;BME280;72646;43.596;1.428;2023-10-31T09:41:31;99500.91;;;20.64;47.04
82872;BME280;72646;43.596;1.428;2023-10-31T09:43:57;99494.78;;;20.62;47.12
82872;BME280;72646;43.596;1.428;2023-10-31T09:46:23;99495.66;;;20.63;46.98
82872;BME280;72646;43.596;1.428;2023-10-31T09:48:49;99510.34;;;20.68;46.99
82872;BME280;72646;43.596;1.428;2023-10-31T09:51:15;99508.69;;;20.67;46.87
82872;BME280;72646;43.596;1.428;2023-10-31T09:53:42;99512.03;;;20.69;46.96
82872;BME280;72646;43.596;1.428;2023-10-31T09:56:09;99515.09;;;20.68;47.07
82872;BME280;72646;43.596;1.428;2023-10-31T09:58:35;99510.06;;;20.60;47.23
82872;BME280;72646;43.596;1.428;2023-10-31T10:01:00;99520.59;;;20.63;47.59
82872;BME280;72646;43.596;1.428;2023-10-31T10:03:27;99511.72;;;20.56;47.52
82872;BME280;72646;43.596;1.428;2023-10-31T10:05:53;99501.44;;;20.51;47.79
82872;BME280;72646;43.596;1.428;2023-10-31T10:08:19;99505.88;;;20.57;48.96
82872;BME280;72646;43.596;1.428;2023-10-31T10:10:45;99498.66;;;20.51;50.94
82872;BME280;72646;43.596;1.428;2023-10-31T10:13:10;99497.31;;;20.59;53.74
82872;BME280;72646;43.596;1.428;2023-10-31T10:15:48;99506.22;;;20.71;54.30
82872;BME280;72646;43.596;1.428;2023-10-31T10:18:34;99501.53;;;20.76;54.45
82872;BME280;72646;43.596;1.428;2023-10-31T10:21:04;99501.25;;;20.83;54.74
82872;BME280;72646;43.596;1.428;2023-10-31T10:23:31;99494.84;;;20.82;55.01
82872;BME280;72646;43.596;1.428;2023-10-31T10:25:57;99513.50;;;20.92;54.72
82872;BME280;72646;43.596;1.428;2023-10-31T10:28:23;99514.91;;;20.94;54.22
82872;BME280;72646;43.596;1.428;2023-10-31T10:30:50;99508.50;;;20.89;54.30
82872;BME280;72646;43.596;1.428;2023-10-31T10:33:17;99514.06;;;20.94;54.30
82872;BME280;72646;43.596;1.428;2023-10-31T10:35:43;99508.50;;;20.94;54.40
82872;BME280;72646;43.596;1.428;2023-10-31T10:38:14;99506.81;;;20.93;54.06
82872;BME280;72646;43.596;1.428;2023-10-31T10:40:41;99511.28;;;20.94;53.80
82872;BME280;72646;43.596;1.428;2023-10-31T10:45:43;99504.31;;;20.91;53.67
82872;BME280;72646;43.596;1.428;2023-10-31T10:48:13;99503.22;;;20.92;53.32
82872;BME280;72646;43.596;1.428;2023-10-31T10:50:42;99508.25;;;20.95;53.43
82872;BME280;72646;43.596;1.428;2023-10-31T10:53:25;99495.72;;;20.88;53.05
82872;BME280;72646;43.596;1.428;2023-10-31T10:56:00;99504.94;;;20.93;52.95
82872;BME280;72646;43.596;1.428;2023-10-31T10:58:47;99509.34;;;20.94;52.55
82872;BME280;72646;43.596;1.428;2023-10-31T11:01:16;99501.88;;;20.95;52.47
82872;BME280;72646;43.596;1.428;2023-10-31T11:03:44;99494.31;;;20.85;52.15
82872;BME280;72646;43.596;1.428;2023-10-31T11:06:10;99499.59;;;20.87;52.21
82872;BME280;72646;43.596;1.428;2023-10-31T11:08:37;99492.66;;;20.84;51.85
82872;BME280;72646;43.596;1.428;2023-10-31T11:11:04;99487.69;;;20.86;51.71
82872;BME280;72646;43.596;1.428;2023-10-31T11:13:29;99505.19;;;20.97;51.42
82872;BME280;72646;43.596;1.428;2023-10-31T11:15:59;99506.03;;;20.97;51.49
82872;BME280;72646;43.596;1.428;2023-10-31T11:18:27;99501.88;;;21.00;51.32
82872;BME280;72646;43.596;1.428;2023-10-31T11:20:53;99505.75;;;20.99;51.05
82872;BME280;72646;43.596;1.428;2023-10-31T11:23:18;99506.63;;;20.99;50.94
82872;BME280;72646;43.596;1.428;2023-10-31T11:25:44;99487.47;;;20.98;51.08
82872;BME280;72646;43.596;1.428;2023-10-31T11:28:16;99494.09;;;20.97;50.74
82872;BME280;72646;43.596;1.428;2023-10-31T11:30:43;99494.41;;;21.00;50.56
82872;BME280;72646;43.596;1.428;2023-10-31T11:33:14;99483.25;;;20.90;50.32
82872;BME280;72646;43.596;1.428;2023-10-31T11:35:41;99490.19;;;20.93;50.13
82872;BME280;72646;43.596;1.428;2023-10-31T11:38:10;99494.06;;;20.92;50.08
82872;BME280;72646;43.596;1.428;2023-10-31T11:43:14;99485.69;;;20.77;50.26
82872;BME280;72646;43.596;1.428;2023-10-31T11:45:41;99502.59;;;20.75;50.67
82872;BME280;72646;43.596;1.428;2023-10-31T11:48:08;99487.59;;;20.61;50.82
82872;BME280;72646;43.596;1.428;2023-10-31T11:50:35;99510.34;;;20.68;50.90
82872;BME280;72646;43.596;1.428;2023-10-31T11:53:08;99502.03;;;20.68;50.53
82872;BME280;72646;43.596;1.428;2023-10-31T11:55:38;99498.72;;;20.66;50.53
82872;BME280;72646;43.596;1.428;2023-10-31T12:00:41;99501.75;;;20.65;50.23
82872;BME280;72646;43.596;1.428;2023-10-31T12:03:07;99489.78;;;20.54;50.48
82872;BME280;72646;43.596;1.428;2023-10-31T12:05:33;99482.31;;;20.55;50.57
82872;BME280;72646;43.596;1.428;2023-10-31T12:07:58;99490.63;;;20.55;50.52
82872;BME280;72646;43.596;1.428;2023-10-31T12:10:25;99504.81;;;20.68;50.29
82872;BME280;72646;43.596;1.428;2023-10-31T12:12:53;99489.25;;;20.62;48.98
82872;BME280;72646;43.596;1.428;2023-10-31T12:15:18;99504.25;;;20.71;49.14
82872;BME280;72646;43.596;1.428;2023-10-31T12:17:44;99469.53;;;20.49;48.09
82872;BME280;72646;43.596;1.428;2023-10-31T12:20:10;99491.25;;;20.72;47.58
82872;BME280;72646;43.596;1.428;2023-10-31T12:22:36;99481.53;;;20.69;47.78
82872;BME280;72646;43.596;1.428;2023-10-31T12:25:07;99504.31;;;20.76;46.55
82872;BME280;72646;43.596;1.428;2023-10-31T12:27:49;99490.97;;;20.73;46.46
82872;BME280;72646;43.596;1.428;2023-10-31T12:30:20;99489.03;;;20.79;46.39
82872;BME280;72646;43.596;1.428;2023-10-31T12:32:53;99491.50;;;20.75;45.57
82872;BME280;72646;43.596;1.428;2023-10-31T12:35:21;99481.25;;;20.76;45.30
82872;BME280;72646;43.596;1.428;2023-10-31T12:37:47;99480.44;;;20.80;45.21
82872;BME280;72646;43.596;1.428;2023-10-31T12:40:17;99466.53;;;20.75;44.68
82872;BME280;72646;43.596;1.428;2023-10-31T12:42:44;99461.53;;;20.72;44.56
82872;BME280;72646;43.596;1.428;2023-10-31T12:45:09;99471.56;;;20.83;44.65
82872;BME280;72646;43.596;1.428;2023-10-31T12:47:35;99466.03;;;20.83;44.74
82872;BME280;72646;43.596;1.428;2023-10-31T12:50:14;99458.25;;;20.80;44.63
82872;BME280;72646;43.596;1.428;2023-10-31T12:52:52;99459.91;;;20.81;44.52
82872;BME280;72646;43.596;1.428;2023-10-31T12:55:18;99458.78;;;20.82;44.75
82872;BME280;72646;43.596;1.428;2023-10-31T12:57:44;99457.41;;;20.75;44.76
82872;BME280;72646;43.596;1.428;2023-10-31T13:00:12;99473.50;;;20.83;44.75
82872;BME280;72646;43.596;1.428;2023-10-31T13:02:39;99463.53;;;20.82;44.66